sensor_id;sensor_type;location;lat;lon;timestamp;P1;durP1;ratioP1;P2;durP2;ratioP2
64682;SDS011;51107;47.652;19.016;2024-03-23T00:55:16;20.73;;;7.97;;
64682;SDS011;51107;47.652;19.016;2024-03-23T00:57:43;16.05;;;7.05;;
64682;SDS011;51107;47.652;19.016;2024-03-23T01:00:10;16.35;;;6.35;;
64682;SDS011;51107;47.652;19.016;2024-03-23T01:02:38;21.23;;;7.12;;
64682;SDS011;51107;47.652;19.016;2024-03-23T01:05:06;16.70;;;6.43;;
64682;SDS011;51107;47.652;19.016;2024-03-23T01:07:33;16.52;;;6.80;;
64682;SDS011;51107;47.652;19.016;2024-03-23T01:10:00;16.48;;;6.72;;
64682;SDS011;51107;47.652;19.016;2024-03-23T01:12:27;13.05;;;5.87;;
64682;SDS011;51107;47.652;19.016;2024-03-23T01:14:54;15.63;;;5.32;;
64682;SDS011;51107;47.652;19.016;2024-03-23T01:17:22;14.02;;;6.00;;
64682;SDS011;51107;47.652;19.016;2024-03-23T01:19:49;13.13;;;5.30;;
64682;SDS011;51107;47.652;19.016;2024-03-23T01:22:16;10.40;;;5.32;;
64682;SDS011;51107;47.652;19.016;2024-03-23T01:24:43;11.18;;;4.80;;
64682;SDS011;51107;47.652;19.016;2024-03-23T01:27:10;13.40;;;5.93;;
64682;SDS011;51107;47.652;19.016;2024-03-23T01:29:37;14.00;;;5.25;;
64682;SDS011;51107;47.652;19.016;2024-03-23T01:32:05;15.95;;;6.15;;
64682;SDS011;51107;47.652;19.016;2024-03-23T01:34:33;18.02;;;6.82;;
64682;SDS011;51107;47.652;19.016;2024-03-23T01:37:00;14.98;;;6.43;;
64682;SDS011;51107;47.652;19.016;2024-03-23T01:39:28;12.77;;;5.57;;
64682;SDS011;51107;47.652;19.016;2024-03-23T01:41:55;14.00;;;5.25;;
64682;SDS011;51107;47.652;19.016;2024-03-23T01:44:22;12.77;;;5.93;;
64682;SDS011;51107;47.652;19.016;2024-03-23T01:46:49;15.45;;;6.15;;
64682;SDS011;51107;47.652;19.016;2024-03-23T01:49:16;10.40;;;5.43;;
64682;SDS011;51107;47.652;19.016;2024-03-23T01:51:43;13.57;;;5.78;;
64682;SDS011;51107;47.652;19.016;2024-03-23T01:54:11;10.63;;;5.50;;
64682;SDS011;51107;47.652;19.016;2024-03-23T01:56:39;10.85;;;4.80;;
64682;SDS011;51107;47.652;19.016;2024-03-23T01:59:06;11.15;;;5.35;;
64682;SDS011;51107;47.652;19.016;2024-03-23T02:01:36;10.00;;;5.28;;
64682;SDS011;51107;47.652;19.016;2024-03-23T02:04:03;11.10;;;5.00;;
64682;SDS011;51107;47.652;19.016;2024-03-23T02:06:31;15.45;;;5.70;;
64682;SDS011;51107;47.652;19.016;2024-03-23T02:08:58;9.35;;;4.60;;
64682;SDS011;51107;47.652;19.016;2024-03-23T02:11:26;10.95;;;4.75;;
64682;SDS011;51107;47.652;19.016;2024-03-23T02:13:54;10.35;;;4.82;;
64682;SDS011;51107;47.652;19.016;2024-03-23T02:16:21;10.05;;;4.80;;
64682;SDS011;51107;47.652;19.016;2024-03-23T02:18:48;12.02;;;4.90;;
64682;SDS011;51107;47.652;19.016;2024-03-23T02:21:15;10.02;;;5.10;;
64682;SDS011;51107;47.652;19.016;2024-03-23T02:23:42;12.00;;;4.85;;
64682;SDS011;51107;47.652;19.016;2024-03-23T02:26:10;8.27;;;4.45;;
64682;SDS011;51107;47.652;19.016;2024-03-23T02:28:37;9.60;;;4.87;;
64682;SDS011;51107;47.652;19.016;2024-03-23T02:31:04;11.80;;;5.05;;
64682;SDS011;51107;47.652;19.016;2024-03-23T02:33:31;12.05;;;5.45;;
64682;SDS011;51107;47.652;19.016;2024-03-23T02:35:59;11.90;;;5.28;;
64682;SDS011;51107;47.652;19.016;2024-03-23T02:38:26;13.50;;;5.00;;
64682;SDS011;51107;47.652;19.016;2024-03-23T02:40:53;13.52;;;4.70;;
64682;SDS011;51107;47.652;19.016;2024-03-23T02:43:20;9.43;;;4.87;;
64682;SDS011;51107;47.652;19.016;2024-03-23T02:45:47;8.07;;;3.92;;
64682;SDS011;51107;47.652;19.016;2024-03-23T02:48:14;10.65;;;4.93;;
64682;SDS011;51107;47.652;19.016;2024-03-23T02:50:41;10.15;;;4.40;;
64682;SDS011;51107;47.652;19.016;2024-03-23T02:53:08;10.70;;;4.57;;
64682;SDS011;51107;47.652;19.016;2024-03-23T02:55:36;10.05;;;4.60;;
64682;SDS011;51107;47.652;19.016;2024-03-23T02:58:03;10.02;;;5.00;;
64682;SDS011;51107;47.652;19.016;2024-03-23T03:00:30;9.30;;;4.95;;
64682;SDS011;51107;47.652;19.016;2024-03-23T03:02:57;9.45;;;4.50;;
64682;SDS011;51107;47.652;19.016;2024-03-23T03:05:24;11.85;;;5.18;;
64682;SDS011;51107;47.652;19.016;2024-03-23T03:07:51;10.32;;;5.45;;
64682;SDS011;51107;47.652;19.016;2024-03-23T03:10:19;10.05;;;4.85;;
64682;SDS011;51107;47.652;19.016;2024-03-23T03:12:46;12.13;;;5.53;;
64682;SDS011;51107;47.652;19.016;2024-03-23T03:15:13;10.65;;;4.93;;
64682;SDS011;51107;47.652;19.016;2024-03-23T03:17:40;11.02;;;4.90;;
64682;SDS011;51107;47.652;19.016;2024-03-23T03:20:08;10.00;;;4.95;;
64682;SDS011;51107;47.652;19.016;2024-03-23T03:22:39;8.73;;;4.90;;
64682;SDS011;51107;47.652;19.016;2024-03-23T03:25:07;11.52;;;5.82;;
64682;SDS011;51107;47.652;19.016;2024-03-23T03:27:34;12.65;;;5.45;;
64682;SDS011;51107;47.652;19.016;2024-03-23T03:30:01;14.82;;;5.62;;
64682;SDS011;51107;47.652;19.016;2024-03-23T03:32:32;11.25;;;4.95;;
64682;SDS011;51107;47.652;19.016;2024-03-23T03:34:59;10.30;;;4.85;;
64682;SDS011;51107;47.652;19.016;2024-03-23T03:37:26;9.27;;;4.43;;
64682;SDS011;51107;47.652;19.016;2024-03-23T03:39:54;12.00;;;4.85;;
64682;SDS011;51107;47.652;19.016;2024-03-23T03:42:21;9.00;;;4.57;;
64682;SDS011;51107;47.652;19.016;2024-03-23T03:44:47;10.13;;;4.53;;
64682;SDS011;51107;47.652;19.016;2024-03-23T03:47:15;9.43;;;4.18;;
64682;SDS011;51107;47.652;19.016;2024-03-23T03:49:42;9.07;;;3.90;;
64682;SDS011;51107;47.652;19.016;2024-03-23T03:52:09;8.98;;;4.15;;
64682;SDS011;51107;47.652;19.016;2024-03-23T03:54:36;8.13;;;4.30;;
64682;SDS011;51107;47.652;19.016;2024-03-23T03:57:03;10.02;;;4.57;;
64682;SDS011;51107;47.652;19.016;2024-03-23T03:59:30;10.10;;;4.93;;
64682;SDS011;51107;47.652;19.016;2024-03-23T04:01:58;10.95;;;5.00;;
64682;SDS011;51107;47.652;19.016;2024-03-23T04:04:25;18.25;;;4.85;;
64682;SDS011;51107;47.652;19.016;2024-03-23T04:06:59;11.35;;;5.20;;
64682;SDS011;51107;47.652;19.016;2024-03-23T04:09:29;12.15;;;5.62;;
64682;SDS011;51107;47.652;19.016;2024-03-23T04:11:57;11.40;;;5.50;;
64682;SDS011;51107;47.652;19.016;2024-03-23T04:14:23;13.40;;;5.87;;
64682;SDS011;51107;47.652;19.016;2024-03-23T04:16:51;11.93;;;5.70;;
64682;SDS011;51107;47.652;19.016;2024-03-23T04:19:18;16.00;;;6.25;;
64682;SDS011;51107;47.652;19.016;2024-03-23T04:21:45;15.38;;;5.70;;
64682;SDS011;51107;47.652;19.016;2024-03-23T04:24:12;13.88;;;6.60;;
64682;SDS011;51107;47.652;19.016;2024-03-23T04:26:42;15.23;;;6.55;;
64682;SDS011;51107;47.652;19.016;2024-03-23T04:29:09;14.85;;;6.65;;
64682;SDS011;51107;47.652;19.016;2024-03-23T04:31:36;13.38;;;6.82;;
64682;SDS011;51107;47.652;19.016;2024-03-23T04:34:04;12.75;;;6.12;;
64682;SDS011;51107;47.652;19.016;2024-03-23T04:36:31;12.90;;;5.03;;
64682;SDS011;51107;47.652;19.016;2024-03-23T04:38:59;11.23;;;5.25;;
64682;SDS011;51107;47.652;19.016;2024-03-23T04:41:27;8.82;;;4.85;;
64682;SDS011;51107;47.652;19.016;2024-03-23T04:43:54;11.52;;;5.43;;
64682;SDS011;51107;47.652;19.016;2024-03-23T04:46:21;15.18;;;7.05;;
64682;SDS011;51107;47.652;19.016;2024-03-23T04:48:48;16.83;;;7.55;;
64682;SDS011;51107;47.652;19.016;2024-03-23T04:51:22;15.52;;;7.85;;
64682;SDS011;51107;47.652;19.016;2024-03-23T04:53:50;16.25;;;7.62;;
64682;SDS011;51107;47.652;19.016;2024-03-23T04:56:17;16.25;;;7.05;;
64682;SDS011;51107;47.652;19.016;2024-03-23T04:58:45;21.10;;;8.18;;
64682;SDS011;51107;47.652;19.016;2024-03-23T05:01:12;15.40;;;7.93;;
64682;SDS011;51107;47.652;19.016;2024-03-23T05:03:40;17.50;;;7.47;;
64682;SDS011;51107;47.652;19.016;2024-03-23T05:06:07;22.77;;;7.78;;
64682;SDS011;51107;47.652;19.016;2024-03-23T05:08:34;18.55;;;6.62;;
64682;SDS011;51107;47.652;19.016;2024-03-23T05:11:01;13.10;;;5.15;;
64682;SDS011;51107;47.652;19.016;2024-03-23T05:13:29;8.90;;;4.72;;
64682;SDS011;51107;47.652;19.016;2024-03-23T05:15:56;13.95;;;4.70;;
64682;SDS011;51107;47.652;19.016;2024-03-23T05:18:23;14.57;;;4.93;;
64682;SDS011;51107;47.652;19.016;2024-03-23T05:20:56;10.30;;;4.57;;
64682;SDS011;51107;47.652;19.016;2024-03-23T05:23:28;10.05;;;4.62;;
64682;SDS011;51107;47.652;19.016;2024-03-23T05:25:55;14.30;;;4.87;;
64682;SDS011;51107;47.652;19.016;2024-03-23T05:28:22;21.90;;;5.37;;
64682;SDS011;51107;47.652;19.016;2024-03-23T05:30:53;13.05;;;5.43;;
64682;SDS011;51107;47.652;19.016;2024-03-23T05:33:21;15.38;;;4.32;;
64682;SDS011;51107;47.652;19.016;2024-03-23T05:35:55;8.50;;;4.10;;
64682;SDS011;51107;47.652;19.016;2024-03-23T05:38:24;10.95;;;5.22;;
64682;SDS011;51107;47.652;19.016;2024-03-23T05:40:54;13.75;;;4.87;;
64682;SDS011;51107;47.652;19.016;2024-03-23T05:43:26;10.05;;;4.78;;
64682;SDS011;51107;47.652;19.016;2024-03-23T05:45:56;13.32;;;5.75;;
64682;SDS011;51107;47.652;19.016;2024-03-23T05:48:25;19.23;;;7.05;;
64682;SDS011;51107;47.652;19.016;2024-03-23T05:50:53;10.80;;;5.30;;
64682;SDS011;51107;47.652;19.016;2024-03-23T05:53:20;13.40;;;5.70;;
64682;SDS011;51107;47.652;19.016;2024-03-23T05:55:47;11.90;;;5.18;;
64682;SDS011;51107;47.652;19.016;2024-03-23T05:58:15;10.27;;;4.53;;
64682;SDS011;51107;47.652;19.016;2024-03-23T06:00:43;9.18;;;4.82;;
64682;SDS011;51107;47.652;19.016;2024-03-23T06:03:11;10.73;;;5.60;;
64682;SDS011;51107;47.652;19.016;2024-03-23T06:05:38;17.52;;;6.37;;
64682;SDS011;51107;47.652;19.016;2024-03-23T06:08:06;17.73;;;7.78;;
64682;SDS011;51107;47.652;19.016;2024-03-23T06:10:36;21.83;;;8.48;;
64682;SDS011;51107;47.652;19.016;2024-03-23T06:13:03;18.10;;;8.80;;
64682;SDS011;51107;47.652;19.016;2024-03-23T06:15:30;23.98;;;11.20;;
64682;SDS011;51107;47.652;19.016;2024-03-23T06:17:58;47.83;;;20.88;;
64682;SDS011;51107;47.652;19.016;2024-03-23T06:20:25;36.78;;;15.75;;
64682;SDS011;51107;47.652;19.016;2024-03-23T06:22:53;33.78;;;13.60;;
64682;SDS011;51107;47.652;19.016;2024-03-23T06:25:20;27.35;;;12.43;;
64682;SDS011;51107;47.652;19.016;2024-03-23T06:27:47;27.90;;;11.35;;
64682;SDS011;51107;47.652;19.016;2024-03-23T06:30:14;36.95;;;11.40;;
64682;SDS011;51107;47.652;19.016;2024-03-23T06:32:42;38.10;;;11.45;;
64682;SDS011;51107;47.652;19.016;2024-03-23T06:35:09;21.85;;;9.80;;
64682;SDS011;51107;47.652;19.016;2024-03-23T06:37:36;23.17;;;10.70;;
64682;SDS011;51107;47.652;19.016;2024-03-23T06:40:04;22.52;;;10.63;;
64682;SDS011;51107;47.652;19.016;2024-03-23T06:42:35;23.17;;;11.40;;
64682;SDS011;51107;47.652;19.016;2024-03-23T06:45:03;31.40;;;11.88;;
64682;SDS011;51107;47.652;19.016;2024-03-23T06:47:32;30.33;;;11.10;;
64682;SDS011;51107;47.652;19.016;2024-03-23T06:50:00;24.83;;;10.80;;
64682;SDS011;51107;47.652;19.016;2024-03-23T06:52:30;28.27;;;12.85;;
64682;SDS011;51107;47.652;19.016;2024-03-23T06:54:57;26.33;;;11.98;;
64682;SDS011;51107;47.652;19.016;2024-03-23T06:57:24;26.42;;;10.50;;
64682;SDS011;51107;47.652;19.016;2024-03-23T06:59:52;21.17;;;10.05;;
64682;SDS011;51107;47.652;19.016;2024-03-23T07:02:19;22.95;;;10.38;;
64682;SDS011;51107;47.652;19.016;2024-03-23T07:04:46;24.77;;;11.12;;
64682;SDS011;51107;47.652;19.016;2024-03-23T07:07:13;28.85;;;10.95;;
64682;SDS011;51107;47.652;19.016;2024-03-23T07:09:40;22.55;;;10.18;;
64682;SDS011;51107;47.652;19.016;2024-03-23T07:12:07;22.40;;;11.50;;
64682;SDS011;51107;47.652;19.016;2024-03-23T07:14:34;22.48;;;10.27;;
64682;SDS011;51107;47.652;19.016;2024-03-23T07:17:01;24.12;;;11.32;;
64682;SDS011;51107;47.652;19.016;2024-03-23T07:19:28;22.52;;;10.23;;
64682;SDS011;51107;47.652;19.016;2024-03-23T07:21:56;20.92;;;10.50;;
64682;SDS011;51107;47.652;19.016;2024-03-23T07:24:23;28.80;;;10.85;;
64682;SDS011;51107;47.652;19.016;2024-03-23T07:26:50;25.42;;;10.73;;
64682;SDS011;51107;47.652;19.016;2024-03-23T07:29:18;24.50;;;10.80;;
64682;SDS011;51107;47.652;19.016;2024-03-23T07:31:45;23.12;;;10.45;;
64682;SDS011;51107;47.652;19.016;2024-03-23T07:34:12;22.92;;;10.60;;
64682;SDS011;51107;47.652;19.016;2024-03-23T07:36:40;22.92;;;10.82;;
64682;SDS011;51107;47.652;19.016;2024-03-23T07:39:07;27.05;;;10.88;;
64682;SDS011;51107;47.652;19.016;2024-03-23T07:41:34;23.12;;;10.70;;
64682;SDS011;51107;47.652;19.016;2024-03-23T07:44:02;23.10;;;10.73;;
64682;SDS011;51107;47.652;19.016;2024-03-23T07:46:29;25.98;;;11.45;;
64682;SDS011;51107;47.652;19.016;2024-03-23T07:48:56;31.05;;;10.65;;
64682;SDS011;51107;47.652;19.016;2024-03-23T07:51:23;20.70;;;10.65;;
64682;SDS011;51107;47.652;19.016;2024-03-23T07:53:51;26.25;;;11.20;;
64682;SDS011;51107;47.652;19.016;2024-03-23T07:56:19;23.33;;;11.18;;
64682;SDS011;51107;47.652;19.016;2024-03-23T07:58:48;20.55;;;10.93;;
64682;SDS011;51107;47.652;19.016;2024-03-23T08:01:16;23.15;;;10.45;;
64682;SDS011;51107;47.652;19.016;2024-03-23T08:03:44;21.77;;;10.60;;
64682;SDS011;51107;47.652;19.016;2024-03-23T08:06:12;22.83;;;11.05;;
64682;SDS011;51107;47.652;19.016;2024-03-23T08:08:41;32.13;;;11.63;;
64682;SDS011;51107;47.652;19.016;2024-03-23T08:11:09;19.17;;;10.45;;
64682;SDS011;51107;47.652;19.016;2024-03-23T08:13:37;22.30;;;10.48;;
64682;SDS011;51107;47.652;19.016;2024-03-23T08:16:05;30.42;;;12.45;;
64682;SDS011;51107;47.652;19.016;2024-03-23T08:18:33;23.50;;;11.05;;
64682;SDS011;51107;47.652;19.016;2024-03-23T08:21:01;22.52;;;10.70;;
64682;SDS011;51107;47.652;19.016;2024-03-23T08:23:30;24.90;;;10.38;;
64682;SDS011;51107;47.652;19.016;2024-03-23T08:26:00;23.85;;;11.35;;
64682;SDS011;51107;47.652;19.016;2024-03-23T08:28:28;30.98;;;11.00;;
64682;SDS011;51107;47.652;19.016;2024-03-23T08:30:55;21.90;;;10.57;;
64682;SDS011;51107;47.652;19.016;2024-03-23T08:33:24;23.48;;;10.52;;
64682;SDS011;51107;47.652;19.016;2024-03-23T08:35:55;24.20;;;10.30;;
64682;SDS011;51107;47.652;19.016;2024-03-23T08:40:57;21.90;;;10.10;;
64682;SDS011;51107;47.652;19.016;2024-03-23T08:43:30;22.50;;;10.23;;
64682;SDS011;51107;47.652;19.016;2024-03-23T08:46:14;21.00;;;10.10;;
64682;SDS011;51107;47.652;19.016;2024-03-23T08:48:48;24.63;;;10.65;;
64682;SDS011;51107;47.652;19.016;2024-03-23T08:51:19;21.73;;;9.77;;
64682;SDS011;51107;47.652;19.016;2024-03-23T08:53:46;23.33;;;10.73;;
64682;SDS011;51107;47.652;19.016;2024-03-23T08:56:13;20.83;;;10.02;;
64682;SDS011;51107;47.652;19.016;2024-03-23T08:58:40;64.82;;;12.05;;
64682;SDS011;51107;47.652;19.016;2024-03-23T09:01:08;19.65;;;9.60;;
64682;SDS011;51107;47.652;19.016;2024-03-23T09:03:37;22.25;;;10.02;;
64682;SDS011;51107;47.652;19.016;2024-03-23T09:06:07;21.25;;;10.05;;
64682;SDS011;51107;47.652;19.016;2024-03-23T09:08:36;19.77;;;9.70;;
64682;SDS011;51107;47.652;19.016;2024-03-23T09:11:03;26.23;;;9.98;;
64682;SDS011;51107;47.652;19.016;2024-03-23T09:13:36;22.13;;;10.45;;
64682;SDS011;51107;47.652;19.016;2024-03-23T09:16:05;18.58;;;9.93;;
64682;SDS011;51107;47.652;19.016;2024-03-23T09:18:33;19.20;;;10.00;;
64682;SDS011;51107;47.652;19.016;2024-03-23T09:21:10;21.73;;;9.98;;
64682;SDS011;51107;47.652;19.016;2024-03-23T09:23:41;18.08;;;9.48;;
64682;SDS011;51107;47.652;19.016;2024-03-23T09:26:10;25.48;;;9.88;;
64682;SDS011;51107;47.652;19.016;2024-03-23T09:28:38;24.20;;;10.32;;
64682;SDS011;51107;47.652;19.016;2024-03-23T09:31:05;20.02;;;9.65;;
64682;SDS011;51107;47.652;19.016;2024-03-23T09:33:34;19.50;;;9.48;;
64682;SDS011;51107;47.652;19.016;2024-03-23T09:36:04;21.27;;;9.70;;
64682;SDS011;51107;47.652;19.016;2024-03-23T09:38:33;19.20;;;9.95;;
64682;SDS011;51107;47.652;19.016;2024-03-23T09:41:00;21.87;;;10.40;;
64682;SDS011;51107;47.652;19.016;2024-03-23T09:43:27;20.05;;;9.23;;
64682;SDS011;51107;47.652;19.016;2024-03-23T09:45:54;19.73;;;9.90;;
64682;SDS011;51107;47.652;19.016;2024-03-23T09:48:21;16.00;;;9.07;;
64682;SDS011;51107;47.652;19.016;2024-03-23T09:50:48;18.42;;;9.65;;
64682;SDS011;51107;47.652;19.016;2024-03-23T09:53:16;31.92;;;9.43;;
64682;SDS011;51107;47.652;19.016;2024-03-23T09:55:43;19.37;;;8.85;;
64682;SDS011;51107;47.652;19.016;2024-03-23T09:58:16;17.12;;;8.73;;
64682;SDS011;51107;47.652;19.016;2024-03-23T10:00:44;16.12;;;7.68;;
64682;SDS011;51107;47.652;19.016;2024-03-23T10:03:12;15.07;;;7.18;;
64682;SDS011;51107;47.652;19.016;2024-03-23T10:05:43;15.52;;;7.87;;
64682;SDS011;51107;47.652;19.016;2024-03-23T10:10:42;13.88;;;6.28;;
64682;SDS011;51107;47.652;19.016;2024-03-23T10:13:10;12.27;;;6.30;;
64682;SDS011;51107;47.652;19.016;2024-03-23T10:15:41;12.98;;;5.47;;
64682;SDS011;51107;47.652;19.016;2024-03-23T10:18:17;10.20;;;4.35;;
64682;SDS011;51107;47.652;19.016;2024-03-23T10:20:47;9.60;;;4.65;;
64682;SDS011;51107;47.652;19.016;2024-03-23T10:23:18;7.00;;;4.05;;
64682;SDS011;51107;47.652;19.016;2024-03-23T10:25:45;8.25;;;4.50;;
64682;SDS011;51107;47.652;19.016;2024-03-23T10:28:13;8.05;;;3.80;;
64682;SDS011;51107;47.652;19.016;2024-03-23T10:30:40;9.40;;;4.43;;
64682;SDS011;51107;47.652;19.016;2024-03-23T10:33:09;6.20;;;3.50;;
64682;SDS011;51107;47.652;19.016;2024-03-23T10:35:37;6.00;;;3.70;;
64682;SDS011;51107;47.652;19.016;2024-03-23T10:38:05;9.63;;;4.40;;
64682;SDS011;51107;47.652;19.016;2024-03-23T10:40:34;8.02;;;4.25;;
64682;SDS011;51107;47.652;19.016;2024-03-23T10:43:05;8.02;;;4.30;;
64682;SDS011;51107;47.652;19.016;2024-03-23T10:45:34;9.55;;;4.35;;
64682;SDS011;51107;47.652;19.016;2024-03-23T10:48:02;10.73;;;4.95;;
64682;SDS011;51107;47.652;19.016;2024-03-23T10:50:29;9.75;;;4.80;;
64682;SDS011;51107;47.652;19.016;2024-03-23T10:52:56;7.82;;;4.35;;
64682;SDS011;51107;47.652;19.016;2024-03-23T10:55:26;10.30;;;4.65;;
64682;SDS011;51107;47.652;19.016;2024-03-23T10:57:54;8.43;;;3.80;;
64682;SDS011;51107;47.652;19.016;2024-03-23T11:00:25;10.77;;;4.28;;
64682;SDS011;51107;47.652;19.016;2024-03-23T11:02:53;8.35;;;3.60;;
64682;SDS011;51107;47.652;19.016;2024-03-23T11:07:53;7.55;;;4.00;;
64682;SDS011;51107;47.652;19.016;2024-03-23T11:10:24;6.57;;;3.78;;
64682;SDS011;51107;47.652;19.016;2024-03-23T11:12:51;5.93;;;3.90;;
64682;SDS011;51107;47.652;19.016;2024-03-23T11:15:19;9.27;;;4.28;;
64682;SDS011;51107;47.652;19.016;2024-03-23T11:18:01;8.50;;;4.40;;
64682;SDS011;51107;47.652;19.016;2024-03-23T11:20:34;14.15;;;4.00;;
64682;SDS011;51107;47.652;19.016;2024-03-23T11:23:02;7.30;;;3.97;;
64682;SDS011;51107;47.652;19.016;2024-03-23T11:25:29;6.93;;;4.20;;
64682;SDS011;51107;47.652;19.016;2024-03-23T11:30:54;8.00;;;3.92;;
64682;SDS011;51107;47.652;19.016;2024-03-23T11:33:21;6.12;;;3.55;;
64682;SDS011;51107;47.652;19.016;2024-03-23T11:35:49;9.45;;;3.37;;
64682;SDS011;51107;47.652;19.016;2024-03-23T11:38:18;6.12;;;3.47;;
64682;SDS011;51107;47.652;19.016;2024-03-23T11:40:48;7.47;;;3.70;;
64682;SDS011;51107;47.652;19.016;2024-03-23T11:43:16;5.28;;;3.05;;
64682;SDS011;51107;47.652;19.016;2024-03-23T11:45:45;6.93;;;3.47;;
64682;SDS011;51107;47.652;19.016;2024-03-23T11:48:15;7.65;;;3.50;;
64682;SDS011;51107;47.652;19.016;2024-03-23T11:50:47;5.53;;;2.90;;
64682;SDS011;51107;47.652;19.016;2024-03-23T11:55:52;6.55;;;2.90;;
64682;SDS011;51107;47.652;19.016;2024-03-23T11:58:21;5.10;;;2.70;;
64682;SDS011;51107;47.652;19.016;2024-03-23T12:00:56;5.32;;;2.75;;
64682;SDS011;51107;47.652;19.016;2024-03-23T12:03:25;3.90;;;2.60;;
64682;SDS011;51107;47.652;19.016;2024-03-23T12:05:55;4.60;;;2.62;;
64682;SDS011;51107;47.652;19.016;2024-03-23T12:11:06;6.15;;;2.67;;
64682;SDS011;51107;47.652;19.016;2024-03-23T12:13:43;4.07;;;2.47;;
64682;SDS011;51107;47.652;19.016;2024-03-23T12:16:13;5.05;;;2.35;;
64682;SDS011;51107;47.652;19.016;2024-03-23T12:18:41;4.78;;;2.40;;
64682;SDS011;51107;47.652;19.016;2024-03-23T12:21:10;6.70;;;3.10;;
64682;SDS011;51107;47.652;19.016;2024-03-23T12:23:40;3.55;;;2.30;;
64682;SDS011;51107;47.652;19.016;2024-03-23T12:26:08;6.03;;;3.03;;
64682;SDS011;51107;47.652;19.016;2024-03-23T12:28:35;10.02;;;2.78;;
64682;SDS011;51107;47.652;19.016;2024-03-23T12:31:03;9.00;;;2.80;;
64682;SDS011;51107;47.652;19.016;2024-03-23T12:33:30;4.90;;;2.50;;
64682;SDS011;51107;47.652;19.016;2024-03-23T12:35:57;4.47;;;2.42;;
64682;SDS011;51107;47.652;19.016;2024-03-23T12:38:24;4.20;;;2.25;;
64682;SDS011;51107;47.652;19.016;2024-03-23T12:40:51;5.18;;;2.53;;
64682;SDS011;51107;47.652;19.016;2024-03-23T12:43:19;6.72;;;2.55;;
64682;SDS011;51107;47.652;19.016;2024-03-23T12:45:49;5.05;;;2.70;;
64682;SDS011;51107;47.652;19.016;2024-03-23T12:48:17;6.28;;;2.25;;
64682;SDS011;51107;47.652;19.016;2024-03-23T12:50:44;11.15;;;6.22;;
64682;SDS011;51107;47.652;19.016;2024-03-23T12:53:11;6.40;;;2.83;;
64682;SDS011;51107;47.652;19.016;2024-03-23T12:55:38;5.05;;;2.90;;
64682;SDS011;51107;47.652;19.016;2024-03-23T12:58:05;6.00;;;2.85;;
64682;SDS011;51107;47.652;19.016;2024-03-23T13:00:34;4.15;;;2.55;;
64682;SDS011;51107;47.652;19.016;2024-03-23T13:03:00;6.20;;;2.95;;
64682;SDS011;51107;47.652;19.016;2024-03-23T13:05:28;6.32;;;3.08;;
64682;SDS011;51107;47.652;19.016;2024-03-23T13:07:55;5.50;;;2.55;;
64682;SDS011;51107;47.652;19.016;2024-03-23T13:10:23;6.65;;;2.30;;
64682;SDS011;51107;47.652;19.016;2024-03-23T13:12:50;9.40;;;2.35;;
64682;SDS011;51107;47.652;19.016;2024-03-23T13:15:17;5.78;;;2.30;;
64682;SDS011;51107;47.652;19.016;2024-03-23T13:17:46;8.00;;;2.40;;
64682;SDS011;51107;47.652;19.016;2024-03-23T13:20:14;3.90;;;2.25;;
64682;SDS011;51107;47.652;19.016;2024-03-23T13:22:41;6.03;;;2.47;;
64682;SDS011;51107;47.652;19.016;2024-03-23T13:25:08;7.05;;;2.42;;
64682;SDS011;51107;47.652;19.016;2024-03-23T13:27:35;4.25;;;2.55;;
64682;SDS011;51107;47.652;19.016;2024-03-23T13:30:02;4.00;;;2.42;;
64682;SDS011;51107;47.652;19.016;2024-03-23T13:32:31;4.57;;;2.00;;
64682;SDS011;51107;47.652;19.016;2024-03-23T13:34:58;4.60;;;2.30;;
64682;SDS011;51107;47.652;19.016;2024-03-23T13:37:25;3.12;;;1.83;;
64682;SDS011;51107;47.652;19.016;2024-03-23T13:39:52;3.47;;;1.80;;
64682;SDS011;51107;47.652;19.016;2024-03-23T13:42:19;3.17;;;1.98;;
64682;SDS011;51107;47.652;19.016;2024-03-23T13:44:47;4.15;;;2.12;;
64682;SDS011;51107;47.652;19.016;2024-03-23T13:47:13;4.78;;;2.08;;
64682;SDS011;51107;47.652;19.016;2024-03-23T13:49:41;5.90;;;2.15;;
64682;SDS011;51107;47.652;19.016;2024-03-23T13:52:08;4.20;;;2.25;;
64682;SDS011;51107;47.652;19.016;2024-03-23T13:54:35;3.92;;;2.40;;
64682;SDS011;51107;47.652;19.016;2024-03-23T13:57:02;6.50;;;3.45;;
64682;SDS011;51107;47.652;19.016;2024-03-23T13:59:29;5.93;;;1.95;;
64682;SDS011;51107;47.652;19.016;2024-03-23T14:01:56;7.18;;;2.30;;
64682;SDS011;51107;47.652;19.016;2024-03-23T14:04:24;4.20;;;2.55;;
64682;SDS011;51107;47.652;19.016;2024-03-23T14:06:51;5.50;;;2.28;;
64682;SDS011;51107;47.652;19.016;2024-03-23T14:09:18;2.92;;;2.12;;
64682;SDS011;51107;47.652;19.016;2024-03-23T14:11:49;5.20;;;2.08;;
64682;SDS011;51107;47.652;19.016;2024-03-23T14:14:17;4.12;;;2.00;;
64682;SDS011;51107;47.652;19.016;2024-03-23T14:16:44;4.43;;;2.10;;
64682;SDS011;51107;47.652;19.016;2024-03-23T14:19:11;7.53;;;2.70;;
64682;SDS011;51107;47.652;19.016;2024-03-23T14:21:38;6.37;;;2.00;;
64682;SDS011;51107;47.652;19.016;2024-03-23T14:24:05;4.53;;;1.95;;
64682;SDS011;51107;47.652;19.016;2024-03-23T14:26:33;2.83;;;1.58;;
64682;SDS011;51107;47.652;19.016;2024-03-23T14:29:00;5.80;;;2.08;;
64682;SDS011;51107;47.652;19.016;2024-03-23T14:31:27;3.28;;;1.95;;
64682;SDS011;51107;47.652;19.016;2024-03-23T14:33:55;7.07;;;1.90;;
64682;SDS011;51107;47.652;19.016;2024-03-23T14:36:22;3.42;;;2.12;;
64682;SDS011;51107;47.652;19.016;2024-03-23T14:38:49;6.45;;;2.60;;
64682;SDS011;51107;47.652;19.016;2024-03-23T14:41:16;4.95;;;2.17;;
64682;SDS011;51107;47.652;19.016;2024-03-23T14:43:43;4.32;;;2.35;;
64682;SDS011;51107;47.652;19.016;2024-03-23T14:46:14;4.05;;;2.25;;
64682;SDS011;51107;47.652;19.016;2024-03-23T14:48:43;4.15;;;1.92;;
64682;SDS011;51107;47.652;19.016;2024-03-23T14:51:11;3.83;;;2.45;;
64682;SDS011;51107;47.652;19.016;2024-03-23T14:53:39;4.32;;;2.47;;
64682;SDS011;51107;47.652;19.016;2024-03-23T14:56:08;3.45;;;1.85;;
64682;SDS011;51107;47.652;19.016;2024-03-23T14:58:36;4.57;;;1.77;;
64682;SDS011;51107;47.652;19.016;2024-03-23T15:01:04;4.78;;;2.30;;
64682;SDS011;51107;47.652;19.016;2024-03-23T15:03:36;3.72;;;2.30;;
64682;SDS011;51107;47.652;19.016;2024-03-23T15:06:05;5.35;;;2.10;;
64682;SDS011;51107;47.652;19.016;2024-03-23T15:08:33;5.20;;;2.37;;
64682;SDS011;51107;47.652;19.016;2024-03-23T15:11:00;3.47;;;1.83;;
64682;SDS011;51107;47.652;19.016;2024-03-23T15:13:35;6.47;;;2.60;;
64682;SDS011;51107;47.652;19.016;2024-03-23T15:16:03;3.00;;;2.00;;
64682;SDS011;51107;47.652;19.016;2024-03-23T15:18:34;3.85;;;1.92;;
64682;SDS011;51107;47.652;19.016;2024-03-23T15:21:03;4.10;;;2.20;;
64682;SDS011;51107;47.652;19.016;2024-03-23T15:23:34;4.72;;;1.75;;
64682;SDS011;51107;47.652;19.016;2024-03-23T15:26:02;10.52;;;2.20;;
64682;SDS011;51107;47.652;19.016;2024-03-23T15:28:30;7.20;;;2.72;;
64682;SDS011;51107;47.652;19.016;2024-03-23T15:31:16;5.10;;;2.70;;
64682;SDS011;51107;47.652;19.016;2024-03-23T15:33:43;4.72;;;2.22;;
64682;SDS011;51107;47.652;19.016;2024-03-23T15:36:11;3.08;;;1.90;;
64682;SDS011;51107;47.652;19.016;2024-03-23T15:38:38;5.70;;;2.45;;